createdAt,value
2018-06-28T00:02:18.659Z,16.04
2018-06-28T00:04:45.689Z,16.09
2018-06-28T00:07:12.722Z,16.00
2018-06-28T00:09:39.805Z,15.99
2018-06-28T00:12:06.850Z,15.92
2018-06-28T00:14:33.897Z,15.79
2018-06-28T00:17:01.019Z,15.73
2018-06-28T00:19:28.117Z,15.69
2018-06-28T00:21:55.255Z,15.62
2018-06-28T00:24:22.354Z,15.60
2018-06-28T00:26:50.270Z,15.62
2018-06-28T00:29:17.408Z,15.66
2018-06-28T00:31:44.517Z,15.61
2018-06-28T00:34:11.589Z,15.64
2018-06-28T00:36:38.715Z,15.56
2018-06-28T00:39:07.533Z,15.54
2018-06-28T00:41:34.553Z,15.57
2018-06-28T00:44:01.606Z,15.56
2018-06-28T00:46:28.636Z,15.57
2018-06-28T00:48:55.684Z,15.58
2018-06-28T00:51:22.757Z,15.59
2018-06-28T00:53:49.873Z,15.58
2018-06-28T00:56:16.928Z,15.54
2018-06-28T00:58:44.018Z,15.45
2018-06-28T01:01:11.128Z,15.44
2018-06-28T01:03:38.138Z,15.45
2018-06-28T01:06:05.186Z,15.40
2018-06-28T01:08:32.216Z,15.34
2018-06-28T01:10:59.273Z,15.30
2018-06-28T01:13:26.310Z,15.32
2018-06-28T01:15:53.317Z,15.34
2018-06-28T01:18:20.384Z,15.32
2018-06-28T01:20:47.532Z,15.26
2018-06-28T01:23:14.656Z,15.23
2018-06-28T01:25:41.773Z,15.25
2018-06-28T01:28:08.802Z,15.12
2018-06-28T01:30:35.838Z,15.11
2018-06-28T01:33:02.945Z,15.08
2018-06-28T01:35:29.965Z,15.02
2018-06-28T01:37:56.978Z,15.01
2018-06-28T01:40:23.988Z,14.94
2018-06-28T01:43:02.642Z,14.94
2018-06-28T01:45:29.694Z,14.98
2018-06-28T01:47:56.802Z,15.00
2018-06-28T01:50:23.846Z,14.97
2018-06-28T01:52:51.050Z,14.99
2018-06-28T01:55:18.017Z,14.94
2018-06-28T01:57:45.293Z,14.80
2018-06-28T02:00:12.290Z,14.81
2018-06-28T02:02:39.324Z,14.69
2018-06-28T02:05:06.366Z,14.69
2018-06-28T02:07:33.385Z,14.69
2018-06-28T02:10:00.444Z,14.77
2018-06-28T02:12:27.677Z,14.76
2018-06-28T02:14:54.682Z,14.70
2018-06-28T02:17:21.822Z,14.69
2018-06-28T02:19:48.858Z,14.67
2018-06-28T02:22:15.890Z,14.64
2018-06-28T02:24:42.939Z,14.68
2018-06-28T02:27:10.037Z,14.64
2018-06-28T02:29:37.358Z,14.54
2018-06-28T02:32:04.413Z,14.52
2018-06-28T02:34:31.417Z,14.45
2018-06-28T02:36:58.496Z,14.38
2018-06-28T02:39:25.696Z,14.39
2018-06-28T02:41:52.957Z,14.38
2018-06-28T02:44:20.074Z,14.27
2018-06-28T02:46:47.274Z,14.27
2018-06-28T02:49:14.537Z,14.21
2018-06-28T02:51:41.554Z,14.19
2018-06-28T02:54:09.507Z,14.20
2018-06-28T02:56:36.563Z,14.14
2018-06-28T02:59:03.644Z,14.06
2018-06-28T03:01:30.665Z,14.08
2018-06-28T03:03:57.701Z,14.06
2018-06-28T03:06:24.893Z,14.04
2018-06-28T03:08:52.567Z,14.05
2018-06-28T03:11:19.570Z,14.16
2018-06-28T03:13:46.896Z,14.20
2018-06-28T03:16:13.912Z,14.24
2018-06-28T03:18:40.965Z,14.25
2018-06-28T03:21:07.972Z,14.25
2018-06-28T03:23:35.077Z,14.18
2018-06-28T03:26:02.082Z,14.24
2018-06-28T03:28:29.108Z,14.10
2018-06-28T03:30:56.214Z,14.18
2018-06-28T03:33:23.230Z,14.18
2018-06-28T03:35:50.285Z,13.98
2018-06-28T03:38:17.289Z,14.09
2018-06-28T03:40:44.303Z,14.17
2018-06-28T03:43:11.325Z,14.21
2018-06-28T03:45:38.405Z,14.19
2018-06-28T03:48:05.437Z,14.27
2018-06-28T03:50:36.789Z,14.39
2018-06-28T03:53:04.061Z,14.42
2018-06-28T03:55:31.078Z,14.30
2018-06-28T03:57:58.625Z,14.31
2018-06-28T04:00:25.734Z,14.31
2018-06-28T04:02:52.869Z,14.47
2018-06-28T04:05:19.963Z,14.49
2018-06-28T04:07:47.113Z,14.48
2018-06-28T04:10:14.196Z,14.48
2018-06-28T04:12:41.242Z,14.47
2018-06-28T04:15:08.329Z,14.58
2018-06-28T04:17:35.452Z,14.68
2018-06-28T04:20:02.518Z,14.69
2018-06-28T04:22:30.434Z,14.70
2018-06-28T04:24:58.192Z,14.83
2018-06-28T04:27:25.801Z,14.87
2018-06-28T04:29:52.804Z,14.89
2018-06-28T04:32:26.812Z,14.94
2018-06-28T04:35:19.010Z,15.02
2018-06-28T04:37:46.041Z,15.09
2018-06-28T04:40:13.060Z,15.21
2018-06-28T04:42:40.066Z,15.34
2018-06-28T04:45:07.162Z,15.38
2018-06-28T04:47:34.186Z,15.35
2018-06-28T04:50:01.338Z,15.36
2018-06-28T04:52:28.485Z,15.38
2018-06-28T04:54:55.543Z,15.50
2018-06-28T04:57:22.585Z,15.59
2018-06-28T04:59:49.601Z,15.63
2018-06-28T05:02:16.664Z,15.68
2018-06-28T05:04:43.854Z,15.66
2018-06-28T05:07:11.042Z,15.69
2018-06-28T05:09:38.210Z,15.78
2018-06-28T05:12:05.253Z,15.86
2018-06-28T05:14:32.272Z,15.87
2018-06-28T05:16:59.344Z,15.91
2018-06-28T05:19:52.476Z,15.96
2018-06-28T05:22:19.584Z,15.97
2018-06-28T05:24:46.596Z,16.04
2018-06-28T05:27:13.701Z,16.11
2018-06-28T05:29:40.731Z,16.15
2018-06-28T05:32:07.842Z,16.24
2018-06-28T05:37:16.298Z,16.42
2018-06-28T05:39:43.301Z,16.44
2018-06-28T05:42:10.393Z,16.47
2018-06-28T05:44:37.429Z,16.57
2018-06-28T05:47:04.490Z,16.62
2018-06-28T05:49:31.512Z,16.75
2018-06-28T05:53:04.689Z,16.91
2018-06-28T05:55:31.711Z,16.94
2018-06-28T05:57:58.842Z,16.97
2018-06-28T06:00:25.866Z,16.96
2018-06-28T06:02:52.925Z,17.00
2018-06-28T06:05:19.966Z,17.10
2018-06-28T06:07:46.998Z,17.16
2018-06-28T06:10:14.065Z,17.33
2018-06-28T06:12:41.094Z,17.42
2018-06-28T06:15:08.174Z,17.48
2018-06-28T06:17:35.238Z,17.54
2018-06-28T06:20:02.348Z,17.20
2018-06-28T06:22:29.382Z,17.68
2018-06-28T06:24:56.399Z,17.85
2018-06-28T06:27:23.438Z,17.85
2018-06-28T06:29:50.483Z,17.91
2018-06-28T06:32:17.494Z,17.93
2018-06-28T06:34:44.520Z,18.01
2018-06-28T06:37:11.529Z,18.11
2018-06-28T06:39:38.558Z,18.20
2018-06-28T06:42:05.606Z,18.26
2018-06-28T06:44:32.650Z,18.34
2018-06-28T06:46:59.757Z,18.42
2018-06-28T06:49:26.741Z,18.48
2018-06-28T06:51:53.762Z,18.58
2018-06-28T06:54:20.810Z,18.63
2018-06-28T06:56:47.854Z,18.69
2018-06-28T06:59:14.884Z,18.74
2018-06-28T07:01:41.937Z,18.74
2018-06-28T07:04:09.045Z,18.84
2018-06-28T07:06:36.154Z,18.95
2018-06-28T07:09:06.254Z,19.04
2018-06-28T07:11:33.797Z,19.09
2018-06-28T07:14:01.467Z,19.17
2018-06-28T07:16:28.520Z,19.19
2018-06-28T07:18:56.181Z,19.23
2018-06-28T07:21:23.861Z,19.27
2018-06-28T07:23:50.974Z,19.39
2018-06-28T07:26:18.554Z,19.52
2018-06-28T07:28:45.734Z,19.51
2018-06-28T07:31:12.764Z,19.59
2018-06-28T07:33:39.806Z,19.67
2018-06-28T07:36:06.894Z,19.75
2018-06-28T07:38:33.916Z,19.80
2018-06-28T07:41:00.999Z,19.88
2018-06-28T07:43:28.013Z,19.92
2018-06-28T07:45:55.550Z,19.99
2018-06-28T07:48:22.556Z,20.06
2018-06-28T07:50:49.595Z,20.09
2018-06-28T07:53:16.611Z,20.17
2018-06-28T07:55:43.653Z,20.23
2018-06-28T07:58:11.209Z,20.30
2018-06-28T08:00:38.313Z,20.40
2018-06-28T08:03:05.403Z,20.39
2018-06-28T08:05:32.471Z,20.56
2018-06-28T08:07:59.780Z,20.65
2018-06-28T08:10:26.869Z,20.73
2018-06-28T08:12:53.986Z,20.78
2018-06-28T08:15:21.025Z,20.90
2018-06-28T08:17:48.069Z,20.91
2018-06-28T08:20:15.186Z,21.00
2018-06-28T08:22:42.303Z,21.10
2018-06-28T08:25:09.445Z,21.17
2018-06-28T08:27:36.547Z,21.33
2018-06-28T08:30:04.149Z,21.38
2018-06-28T08:32:31.554Z,21.46
2018-06-28T08:34:58.580Z,21.48
2018-06-28T08:37:25.741Z,21.48
2018-06-28T08:39:52.863Z,21.44
2018-06-28T08:42:19.982Z,21.52
2018-06-28T08:44:47.067Z,21.73
2018-06-28T08:47:14.097Z,21.71
2018-06-28T08:49:41.129Z,21.81
2018-06-28T08:52:08.146Z,21.81
2018-06-28T08:54:35.167Z,21.87
2018-06-28T08:57:02.330Z,21.93
2018-06-28T08:59:29.466Z,22.03
2018-06-28T09:01:56.779Z,22.07
2018-06-28T09:04:23.913Z,22.17
2018-06-28T09:06:50.983Z,22.15
2018-06-28T09:09:18.018Z,22.27
2018-06-28T09:11:45.149Z,22.36
2018-06-28T09:14:12.265Z,22.52
2018-06-28T09:16:39.282Z,22.51
2018-06-28T09:19:06.427Z,22.65
2018-06-28T09:21:33.485Z,22.69
2018-06-28T09:24:00.521Z,22.70
2018-06-28T09:26:27.567Z,22.74
2018-06-28T09:28:54.642Z,22.81
2018-06-28T09:31:21.739Z,22.86
2018-06-28T09:33:48.874Z,22.89
2018-06-28T09:36:16.025Z,22.99
2018-06-28T09:38:43.071Z,22.98
2018-06-28T09:41:10.104Z,23.08
2018-06-28T09:43:37.154Z,23.18
2018-06-28T09:46:04.285Z,23.33
2018-06-28T09:48:31.406Z,23.36
2018-06-28T09:50:58.456Z,23.39
2018-06-28T09:53:25.818Z,23.37
2018-06-28T09:55:53.018Z,23.55
2018-06-28T09:58:20.087Z,23.65
2018-06-28T10:00:47.507Z,23.72
2018-06-28T10:03:15.022Z,23.78
2018-06-28T10:05:42.444Z,23.93
2018-06-28T10:08:10.414Z,23.76
2018-06-28T10:10:38.006Z,23.80
2018-06-28T10:13:05.258Z,24.00
2018-06-28T10:15:32.326Z,24.09
2018-06-28T10:17:59.392Z,24.13
2018-06-28T10:20:26.753Z,24.19
2018-06-28T10:23:00.721Z,24.15
2018-06-28T10:25:27.764Z,24.11
2018-06-28T10:27:54.777Z,24.19
2018-06-28T10:30:21.833Z,24.23
2018-06-28T10:32:48.965Z,24.18
2018-06-28T10:35:16.132Z,24.43
2018-06-28T10:37:43.391Z,24.57
2018-06-28T10:40:10.772Z,24.49
2018-06-28T10:42:38.444Z,24.55
2018-06-28T10:45:07.085Z,24.53
2018-06-28T10:47:34.135Z,24.63
2018-06-28T10:50:01.307Z,24.50
2018-06-28T10:52:33.974Z,24.35
2018-06-28T10:55:09.382Z,24.55
2018-06-28T10:57:40.309Z,24.62
2018-06-28T11:00:10.613Z,24.67
2018-06-28T11:02:47.393Z,24.71
2018-06-28T11:05:26.023Z,24.93
2018-06-28T11:08:02.075Z,24.96
2018-06-28T11:10:38.535Z,24.96
2018-06-28T11:13:18.058Z,25.02
2018-06-28T11:15:54.505Z,24.98
2018-06-28T11:21:00.573Z,25.02
2018-06-28T11:23:32.721Z,25.18
2018-06-28T11:26:05.442Z,25.18
2018-06-28T11:28:36.931Z,25.06
2018-06-28T11:31:09.661Z,25.13
2018-06-28T11:33:39.063Z,25.11
2018-06-28T11:36:06.191Z,25.24
2018-06-28T11:38:38.269Z,25.27
2018-06-28T11:41:10.438Z,25.27
2018-06-28T11:43:42.615Z,25.10
2018-06-28T11:46:13.258Z,25.09
2018-06-28T11:48:44.295Z,25.20
2018-06-28T11:51:19.295Z,25.16
2018-06-28T11:53:51.598Z,25.29
2018-06-28T11:56:21.689Z,25.38
2018-06-28T11:59:01.487Z,25.32
2018-06-28T12:01:32.347Z,25.31
2018-06-28T12:04:10.244Z,25.47
2018-06-28T12:06:42.039Z,25.51
2018-06-28T12:09:17.996Z,25.54
2018-06-28T12:11:50.429Z,25.52
2018-06-28T12:14:29.730Z,25.49
2018-06-28T12:17:04.274Z,25.80
2018-06-28T12:19:39.431Z,25.82
2018-06-28T12:22:13.293Z,26.01
2018-06-28T12:24:46.957Z,26.29
2018-06-28T12:27:17.835Z,26.43
2018-06-28T12:29:52.028Z,26.67
2018-06-28T12:32:28.258Z,26.87
2018-06-28T12:35:06.010Z,27.29
2018-06-28T12:37:39.745Z,26.76
2018-06-28T12:40:09.074Z,27.14
2018-06-28T12:42:40.124Z,27.13
2018-06-28T12:45:15.738Z,27.42
2018-06-28T12:47:59.739Z,27.49
2018-06-28T12:50:33.003Z,27.54
2018-06-28T12:53:07.365Z,27.93
2018-06-28T12:56:51.167Z,28.25
2018-06-28T12:59:23.112Z,27.98
2018-06-28T13:02:06.840Z,27.77
2018-06-28T13:04:46.650Z,28.31
2018-06-28T13:07:18.502Z,28.38
2018-06-28T13:09:46.981Z,28.59
2018-06-28T13:12:19.952Z,28.53
2018-06-28T13:14:55.207Z,28.17
2018-06-28T13:17:30.459Z,28.37
2018-06-28T13:20:07.508Z,28.41
2018-06-28T13:22:38.099Z,28.10
2018-06-28T13:25:07.055Z,28.25
2018-06-28T13:27:44.281Z,28.43
2018-06-28T13:30:18.926Z,28.48
2018-06-28T13:32:49.912Z,28.63
2018-06-28T13:35:19.621Z,28.59
2018-06-28T13:37:48.046Z,28.84
2018-06-28T13:40:16.911Z,29.35
2018-06-28T13:42:46.202Z,28.96
2018-06-28T13:45:14.764Z,29.34
2018-06-28T13:47:42.794Z,29.57
2018-06-28T13:50:12.077Z,29.61
2018-06-28T13:52:46.829Z,29.32
2018-06-28T13:55:13.871Z,29.33
2018-06-28T13:57:41.517Z,29.32
2018-06-28T14:00:08.750Z,29.22
2018-06-28T14:02:35.783Z,29.24
2018-06-28T14:05:02.888Z,29.69
2018-06-28T14:07:29.906Z,29.94
2018-06-28T14:09:56.916Z,29.62
2018-06-28T14:12:24.024Z,30.04
2018-06-28T14:14:58.030Z,30.04
2018-06-28T14:17:25.088Z,30.18
2018-06-28T14:19:52.157Z,29.59
2018-06-28T14:22:19.224Z,29.12
2018-06-28T14:24:46.309Z,29.99
2018-06-28T14:27:13.405Z,30.30
2018-06-28T14:29:40.513Z,29.62
2018-06-28T14:32:07.660Z,29.72
2018-06-28T14:34:34.800Z,29.64
2018-06-28T14:37:01.805Z,29.85
2018-06-28T14:39:29.082Z,29.67
2018-06-28T14:41:56.287Z,29.90
2018-06-28T14:44:23.357Z,29.77
2018-06-28T14:46:50.447Z,29.66
2018-06-28T14:49:17.566Z,29.05
2018-06-28T14:51:44.710Z,29.17
2018-06-28T14:54:11.727Z,29.25
2018-06-28T14:56:38.860Z,29.49
2018-06-28T14:59:05.890Z,29.64
2018-06-28T15:01:33.007Z,29.63
2018-06-28T15:04:00.062Z,29.14
2018-06-28T15:06:27.102Z,29.06
2018-06-28T15:08:54.124Z,29.03
2018-06-28T15:11:21.169Z,28.69
2018-06-28T15:13:48.278Z,28.75
2018-06-28T15:16:15.398Z,28.76
2018-06-28T15:18:42.795Z,28.45
2018-06-28T15:21:09.849Z,28.31
2018-06-28T15:23:37.054Z,28.49
2018-06-28T15:26:04.097Z,28.23
2018-06-28T15:28:31.149Z,28.49
2018-06-28T15:30:58.193Z,28.46
2018-06-28T15:33:25.514Z,28.06
2018-06-28T15:35:52.517Z,28.14
2018-06-28T15:38:19.558Z,28.38
2018-06-28T15:40:46.670Z,28.44
2018-06-28T15:43:13.774Z,28.66
2018-06-28T15:45:40.946Z,28.46
2018-06-28T15:48:08.085Z,28.35
2018-06-28T15:50:35.337Z,28.75
2018-06-28T15:53:02.407Z,28.53
2018-06-28T15:55:29.554Z,28.83
2018-06-28T15:57:56.605Z,28.87
2018-06-28T16:00:23.706Z,29.00
2018-06-28T16:02:51.194Z,28.61
2018-06-28T16:05:18.213Z,28.41
2018-06-28T16:07:45.256Z,28.82
2018-06-28T16:10:12.377Z,28.57
2018-06-28T16:12:39.377Z,28.54
2018-06-28T16:15:06.399Z,28.25
2018-06-28T16:17:33.450Z,28.10
2018-06-28T16:20:00.701Z,28.04
2018-06-28T16:22:27.744Z,27.89
2018-06-28T16:24:54.860Z,27.95
2018-06-28T16:27:21.985Z,27.36
2018-06-28T16:29:49.031Z,27.34
2018-06-28T16:32:16.121Z,27.48
2018-06-28T16:34:43.209Z,27.42
2018-06-28T16:37:10.234Z,27.27
2018-06-28T16:39:37.254Z,27.24
2018-06-28T16:42:04.555Z,27.16
2018-06-28T16:44:31.638Z,27.10
2018-06-28T16:49:32.575Z,26.63
2018-06-28T16:51:59.622Z,26.47
2018-06-28T16:54:26.712Z,26.06
2018-06-28T16:56:53.754Z,26.19
2018-06-28T16:59:20.869Z,26.15
2018-06-28T17:01:47.924Z,26.16
2018-06-28T17:04:14.968Z,25.94
2018-06-28T17:06:42.046Z,25.85
2018-06-28T17:19:33.041Z,25.42
2018-06-28T17:22:00.116Z,25.44
2018-06-28T17:24:27.136Z,25.35
2018-06-28T17:26:54.263Z,25.31
2018-06-28T17:29:21.509Z,25.31
2018-06-28T17:31:48.846Z,25.33
2018-06-28T17:34:15.991Z,25.27
2018-06-28T17:36:43.060Z,25.03
2018-06-28T17:39:10.124Z,25.10
2018-06-28T17:41:37.169Z,24.96
2018-06-28T17:44:04.229Z,24.89
2018-06-28T17:46:31.261Z,24.87
2018-06-28T17:48:58.284Z,24.77
2018-06-28T17:51:25.311Z,24.76
2018-06-28T17:53:52.645Z,24.79
2018-06-28T17:56:19.755Z,24.85
2018-06-28T17:58:46.834Z,24.75
2018-06-28T18:01:13.861Z,24.71
2018-06-28T18:03:40.861Z,24.65
2018-06-28T18:06:07.931Z,24.56
2018-06-28T18:08:35.054Z,24.53
2018-06-28T18:11:02.072Z,24.56
2018-06-28T18:13:29.440Z,24.50
2018-06-28T18:15:56.451Z,24.44
2018-06-28T18:18:23.471Z,24.38
2018-06-28T18:20:50.771Z,24.31
2018-06-28T18:23:17.768Z,24.33
2018-06-28T18:25:44.772Z,24.24
2018-06-28T18:28:11.822Z,24.23
2018-06-28T18:30:38.893Z,24.18
2018-06-28T18:33:05.907Z,24.06
2018-06-28T18:35:32.916Z,24.09
2018-06-28T18:37:59.978Z,24.00
2018-06-28T18:40:27.057Z,23.96
2018-06-28T18:42:54.094Z,23.91
2018-06-28T18:45:21.180Z,23.90
2018-06-28T18:47:48.213Z,23.89
2018-06-28T18:50:15.565Z,23.82
2018-06-28T18:52:42.811Z,23.78
2018-06-28T18:55:09.855Z,23.71
2018-06-28T18:57:36.917Z,23.65
2018-06-28T19:00:04.836Z,23.60
2018-06-28T19:02:31.842Z,23.52
2018-06-28T19:04:58.942Z,23.44
2018-06-28T19:07:26.024Z,23.36
2018-06-28T19:09:58.964Z,23.30
2018-06-28T19:12:25.965Z,23.29
2018-06-28T19:14:58.507Z,23.23
2018-06-28T19:17:26.574Z,23.22
2018-06-28T19:19:53.602Z,23.20
2018-06-28T19:22:26.279Z,23.12
2018-06-28T19:24:53.420Z,22.89
2018-06-28T19:27:20.469Z,22.84
2018-06-28T19:29:53.217Z,22.77
2018-06-28T19:32:33.144Z,22.71
2018-06-28T19:35:01.112Z,22.67
2018-06-28T19:37:33.788Z,22.66
2018-06-28T19:40:08.793Z,22.62
2018-06-28T19:42:41.475Z,22.55
2018-06-28T19:45:08.616Z,22.35
2018-06-28T19:47:36.103Z,22.22
2018-06-28T19:50:09.194Z,22.15
2018-06-28T19:52:41.857Z,22.24
2018-06-28T19:55:09.735Z,22.17
2018-06-28T19:57:36.836Z,22.11
2018-06-28T20:00:04.307Z,22.15
2018-06-28T20:02:37.025Z,21.97
2018-06-28T20:05:04.525Z,21.82
2018-06-28T20:07:31.686Z,21.67
2018-06-28T20:09:58.834Z,21.54
2018-06-28T20:12:31.560Z,21.49
2018-06-28T20:15:04.192Z,21.40
2018-06-28T20:17:36.921Z,21.35
2018-06-28T20:20:09.900Z,21.21
2018-06-28T20:22:37.158Z,21.19
2018-06-28T20:25:04.247Z,21.24
2018-06-28T20:27:37.289Z,21.10
2018-06-28T20:30:10.472Z,21.01
2018-06-28T20:32:43.768Z,20.92
2018-06-28T20:35:11.129Z,20.86
2018-06-28T20:37:38.185Z,20.73
2018-06-28T20:40:05.578Z,20.82
2018-06-28T20:42:33.035Z,20.62
2018-06-28T20:45:00.269Z,20.53
2018-06-28T20:47:27.785Z,20.40
2018-06-28T20:49:55.847Z,20.33
2018-06-28T20:52:22.897Z,20.23
2018-06-28T20:54:49.978Z,20.19
2018-06-28T20:57:17.041Z,20.14
2018-06-28T20:59:44.042Z,20.15
2018-06-28T21:02:11.061Z,20.07
2018-06-28T21:04:38.193Z,19.95
2018-06-28T21:07:05.461Z,19.80
2018-06-28T21:09:32.562Z,19.71
2018-06-28T21:11:59.600Z,19.63
2018-06-28T21:14:26.617Z,19.61
2018-06-28T21:16:54.005Z,19.55
2018-06-28T21:19:21.343Z,19.52
2018-06-28T21:21:48.351Z,19.54
2018-06-28T21:24:15.384Z,19.54
2018-06-28T21:26:42.512Z,19.55
2018-06-28T21:29:09.760Z,19.38
2018-06-28T21:31:36.922Z,19.39
2018-06-28T21:34:04.984Z,19.37
2018-06-28T21:36:32.078Z,19.41
2018-06-28T21:38:59.091Z,19.35
2018-06-28T21:41:26.277Z,19.34
2018-06-28T21:43:53.329Z,19.30
2018-06-28T21:46:20.421Z,19.34
2018-06-28T21:48:47.681Z,19.21
2018-06-28T21:51:14.797Z,19.09
2018-06-28T21:53:41.805Z,18.97
2018-06-28T21:56:09.546Z,18.89
2018-06-28T21:58:36.781Z,18.90
2018-06-28T22:01:03.922Z,18.77
2018-06-28T22:03:31.598Z,18.72
2018-06-28T22:05:59.101Z,18.76
2018-06-28T22:08:26.150Z,18.77
2018-06-28T22:10:53.255Z,18.73
2018-06-28T22:13:20.896Z,18.69
2018-06-28T22:15:48.617Z,18.64
2018-06-28T22:18:15.728Z,18.51
2018-06-28T22:20:42.738Z,18.35
2018-06-28T22:23:09.737Z,18.30
2018-06-28T22:25:36.872Z,18.29
2018-06-28T22:28:03.920Z,18.29
2018-06-28T22:30:30.913Z,18.28
2018-06-28T22:32:58.055Z,18.36
2018-06-28T22:35:25.087Z,18.32
2018-06-28T22:37:52.110Z,18.09
2018-06-28T22:40:19.241Z,18.01
2018-06-28T22:42:46.333Z,17.99
2018-06-28T22:45:13.361Z,18.03
2018-06-28T22:47:41.599Z,17.99
2018-06-28T22:50:08.658Z,17.95
2018-06-28T22:52:35.667Z,17.91
2018-06-28T22:55:02.849Z,17.76
2018-06-28T22:57:29.926Z,17.83
2018-06-28T22:59:57.141Z,17.87
2018-06-28T23:02:24.701Z,17.82
2018-06-28T23:04:52.354Z,17.83
2018-06-28T23:07:19.362Z,17.74
2018-06-28T23:09:46.513Z,17.58
2018-06-28T23:12:13.625Z,17.53
2018-06-28T23:14:40.625Z,17.53
2018-06-28T23:17:07.734Z,17.50
2018-06-28T23:19:34.821Z,17.39
2018-06-28T23:22:01.933Z,17.38
2018-06-28T23:24:29.047Z,17.40
2018-06-28T23:26:56.105Z,17.47
2018-06-28T23:29:23.293Z,17.46
2018-06-28T23:31:50.310Z,17.47
2018-06-28T23:34:17.440Z,17.42
2018-06-28T23:36:44.492Z,17.53
2018-06-28T23:39:11.743Z,17.50
2018-06-28T23:41:38.865Z,17.48
2018-06-28T23:44:06.765Z,17.43
2018-06-28T23:46:34.208Z,17.42
2018-06-28T23:49:01.216Z,17.44
2018-06-28T23:51:28.501Z,17.33
2018-06-28T23:53:55.623Z,17.29
2018-06-28T23:56:22.710Z,17.27
2018-06-28T23:58:49.778Z,17.19
